Time;durP1;ratioP1;P1;durP2;ratioP2;P2;SDS_P1;SDS_P2;PMS_P1;PMS_P2;Temp;Humidity;BMP_temperature;BMP_pressure;BME280_temperature;BME280_humidity;BME280_pressure;Samples;Min_cycle;Max_cycle;Signal;HPM_P1;HPM_P2
2022/08/05 00:01:16;;;;;;;10.23;7.53;;;26.00;93.80;;;;;;5008308;28;20228;-65
2022/08/05 00:03:41;;;;;;;11.15;8.02;;;25.90;94.70;;;;;;5037006;28;20292;-64
2022/08/05 00:06:07;;;;;;;8.35;7.47;;;25.90;95.40;;;;;;5016680;28;20273;-64
2022/08/05 00:08:33;;;;;;;12.27;8.30;;;25.80;95.20;;;;;;5025464;28;20209;-65
2022/08/05 00:11:00;;;;;;;11.52;8.32;;;25.80;94.20;;;;;;5015361;28;20196;-66
2022/08/05 00:13:26;;;;;;;12.32;7.22;;;25.80;94.00;;;;;;5022387;28;20715;-60
2022/08/05 00:15:51;;;;;;;11.23;7.53;;;25.70;94.40;;;;;;5022553;28;20261;-60
2022/08/05 00:18:17;;;;;;;9.02;7.43;;;25.60;95.00;;;;;;5016150;28;20545;-60
2022/08/05 00:20:42;;;;;;;14.27;8.02;;;25.60;94.70;;;;;;5018966;28;20305;-60
2022/08/05 00:23:08;;;;;;;12.73;7.38;;;25.60;95.30;;;;;;5036719;28;20217;-69
2022/08/05 00:25:33;;;;;;;8.75;7.13;;;25.50;94.90;;;;;;5014450;28;20260;-60
2022/08/05 00:27:58;;;;;;;8.35;6.90;;;25.50;94.90;;;;;;5034004;28;20195;-60
2022/08/05 00:30:24;;;;;;;10.55;7.20;;;25.40;95.00;;;;;;5031599;28;20212;-61
2022/08/05 00:32:50;;;;;;;10.93;7.30;;;25.40;94.90;;;;;;5032687;28;20237;-61
2022/08/05 00:35:16;;;;;;;10.00;7.15;;;25.30;95.90;;;;;;5027672;28;20209;-60
2022/08/05 00:37:41;;;;;;;8.48;7.55;;;25.30;96.30;;;;;;5033463;28;20196;-60
2022/08/05 00:40:07;;;;;;;9.15;7.78;;;25.30;96.70;;;;;;5028280;28;20212;-61
2022/08/05 00:42:35;;;;;;;10.23;7.45;;;25.20;95.80;;;;;;5034999;28;20686;-60
2022/08/05 00:45:03;;;;;;;11.30;7.13;;;25.10;96.60;;;;;;5034487;28;20207;-60
2022/08/05 00:47:28;;;;;;;9.70;8.13;;;25.10;96.50;;;;;;5037512;28;20235;-60
2022/08/05 00:49:54;;;;;;;11.48;7.72;;;25.10;96.00;;;;;;5035161;28;20200;-60
2022/08/05 00:52:19;;;;;;;8.48;7.57;;;25.10;96.20;;;;;;5039213;28;20539;-60
2022/08/05 00:54:45;;;;;;;7.22;6.53;;;25.00;96.70;;;;;;5035704;28;20194;-60
2022/08/05 00:57:11;;;;;;;7.20;6.50;;;24.90;97.50;;;;;;5024536;28;20589;-61
2022/08/05 00:59:36;;;;;;;9.77;7.03;;;24.80;97.70;;;;;;5028362;28;20329;-62
2022/08/05 01:02:02;;;;;;;8.15;6.00;;;24.70;97.60;;;;;;5035061;28;20221;-63
2022/08/05 01:04:27;;;;;;;7.18;6.43;;;24.60;97.40;;;;;;5030838;28;20216;-60
2022/08/05 01:06:53;;;;;;;11.43;6.50;;;24.60;97.30;;;;;;5019237;28;20235;-60
2022/08/05 01:09:18;;;;;;;8.85;6.63;;;24.50;97.40;;;;;;5031407;28;20295;-60
2022/08/05 01:11:47;;;;;;;7.78;6.78;;;24.40;97.60;;;;;;5014794;28;20199;-60
2022/08/05 01:14:23;;;;;;;7.35;5.97;;;24.40;97.80;;;;;;5023002;28;20197;-60
2022/08/05 01:17:41;;;;;;;8.98;6.88;;;24.30;98.00;;;;;;5034620;28;20207;-60
2022/08/05 01:20:12;;;;;;;7.80;6.63;;;24.20;98.30;;;;;;5015538;28;20227;-60
2022/08/05 01:23:11;;;;;;;9.70;7.05;;;24.20;99.30;;;;;;5029710;28;20193;-59
2022/08/05 01:26:18;;;;;;;10.15;6.65;;;24.20;99.70;;;;;;5008746;28;20225;-60
2022/08/05 01:28:57;;;;;;;8.48;6.28;;;24.20;99.80;;;;;;5017880;28;20257;-61
2022/08/05 01:31:44;;;;;;;8.43;6.40;;;24.20;99.60;;;;;;5019116;28;20212;-60
2022/08/05 01:34:14;;;;;;;8.75;5.47;;;24.00;99.70;;;;;;5009697;28;20208;-60
2022/08/05 01:36:49;;;;;;;7.72;6.72;;;24.00;99.90;;;;;;5019185;28;20190;-60
2022/08/05 01:39:16;;;;;;;7.45;6.00;;;24.00;99.90;;;;;;5015218;28;20282;-60
2022/08/05 01:41:44;;;;;;;7.25;6.50;;;23.90;99.90;;;;;;5018875;28;20217;-60
2022/08/05 01:44:11;;;;;;;7.28;6.40;;;23.90;99.90;;;;;;5036302;28;20195;-61
2022/08/05 01:46:39;;;;;;;5.65;4.97;;;23.90;99.90;;;;;;5009947;28;20185;-60
2022/08/05 01:49:05;;;;;;;7.30;6.70;;;23.80;99.90;;;;;;5039594;28;20272;-60
2022/08/05 01:51:34;;;;;;;9.52;5.93;;;23.80;99.90;;;;;;5014253;28;20184;-60
2022/08/05 01:54:02;;;;;;;5.90;5.22;;;23.80;99.90;;;;;;5032137;28;20196;-60
2022/08/05 01:56:31;;;;;;;8.80;5.57;;;23.70;99.90;;;;;;5013622;28;20265;-60
2022/08/05 01:58:57;;;;;;;6.53;5.70;;;23.80;99.90;;;;;;5032958;28;20567;-60
2022/08/05 02:01:26;;;;;;;5.47;4.93;;;23.70;99.90;;;;;;5015012;28;20514;-60
2022/08/05 02:03:54;;;;;;;6.68;4.93;;;23.70;99.90;;;;;;5030385;28;20197;-60
2022/08/05 02:06:19;;;;;;;6.60;4.47;;;23.70;99.90;;;;;;5007291;28;20207;-59
2022/08/05 02:08:45;;;;;;;5.13;4.63;;;23.70;99.90;;;;;;5026991;28;20834;-59
2022/08/05 02:11:14;;;;;;;8.10;4.38;;;23.70;99.90;;;;;;5016024;28;20204;-59
2022/08/05 02:13:50;;;;;;;6.88;4.57;;;23.70;99.90;;;;;;5036924;28;20317;-60
2022/08/05 02:16:26;;;;;;;4.30;4.00;;;23.70;99.90;;;;;;5025068;28;20208;-59
2022/08/05 02:18:58;;;;;;;5.97;5.00;;;23.60;99.90;;;;;;5026246;28;20658;-59
2022/08/05 02:21:33;;;;;;;5.80;4.60;;;23.60;99.90;;;;;;5006647;28;20223;-59
2022/08/05 02:24:05;;;;;;;5.73;5.23;;;23.60;99.90;;;;;;5028495;28;20191;-59
2022/08/05 02:26:46;;;;;;;9.20;5.03;;;23.60;99.90;;;;;;5013298;28;20184;-59
2022/08/05 02:29:15;;;;;;;4.72;4.32;;;23.60;99.90;;;;;;5010652;28;20256;-59
2022/08/05 02:31:44;;;;;;;6.78;4.25;;;23.60;99.90;;;;;;5047307;28;20229;-59
2022/08/05 02:34:11;;;;;;;4.07;3.88;;;23.50;99.90;;;;;;5015682;28;20203;-59
2022/08/05 02:36:42;;;;;;;5.93;3.97;;;23.50;99.90;;;;;;5014160;28;20199;-60
2022/08/05 02:39:09;;;;;;;6.30;4.43;;;23.40;99.90;;;;;;5017482;28;20196;-59
2022/08/05 02:41:37;;;;;;;4.35;4.05;;;23.40;99.90;;;;;;5014513;28;20701;-61
2022/08/05 02:44:07;;;;;;;5.65;4.20;;;23.40;99.90;;;;;;5039660;28;20554;-59
2022/08/05 02:46:35;;;;;;;5.13;4.57;;;23.40;99.90;;;;;;5012502;28;20186;-59
2022/08/05 02:49:01;;;;;;;5.97;4.60;;;23.40;99.90;;;;;;5020977;28;20744;-60
2022/08/05 02:51:27;;;;;;;4.93;4.40;;;23.40;99.90;;;;;;5035841;28;20185;-59
2022/08/05 02:53:53;;;;;;;8.55;4.65;;;23.30;99.90;;;;;;5030596;28;20800;-59
2022/08/05 02:56:19;;;;;;;6.20;4.60;;;23.40;99.90;;;;;;5014301;28;20236;-59
2022/08/05 02:58:46;;;;;;;6.00;4.97;;;23.30;99.90;;;;;;5031195;28;20608;-59
2022/08/05 03:01:16;;;;;;;5.93;5.35;;;23.30;99.90;;;;;;5011595;28;20281;-60
2022/08/05 03:03:43;;;;;;;11.80;4.57;;;23.30;99.90;;;;;;5040600;28;20548;-59
2022/08/05 03:06:10;;;;;;;5.70;4.40;;;23.30;99.90;;;;;;5025354;28;20967;-60
2022/08/05 03:08:38;;;;;;;4.82;4.40;;;23.30;99.90;;;;;;5041017;28;20191;-60
2022/08/05 03:11:03;;;;;;;5.10;4.23;;;23.20;99.90;;;;;;5026638;28;20218;-60
2022/08/05 03:13:29;;;;;;;6.80;3.97;;;23.20;99.90;;;;;;5022648;28;20541;-59
2022/08/05 03:15:54;;;;;;;6.20;4.75;;;23.20;99.90;;;;;;5020487;28;20203;-59
2022/08/05 03:18:20;;;;;;;8.10;4.85;;;23.20;99.90;;;;;;5030856;28;20210;-61
2022/08/05 03:20:46;;;;;;;5.60;4.97;;;23.20;99.90;;;;;;5016746;28;20699;-61
2022/08/05 03:23:12;;;;;;;5.45;3.83;;;23.20;99.90;;;;;;5027957;28;20232;-60
2022/08/05 03:25:39;;;;;;;4.15;3.83;;;23.10;99.90;;;;;;5021712;28;20204;-60
2022/08/05 03:28:07;;;;;;;5.25;4.15;;;23.10;99.90;;;;;;5028161;28;20206;-60
2022/08/05 03:30:33;;;;;;;6.90;4.00;;;23.10;99.90;;;;;;5018790;28;20195;-60
2022/08/05 03:33:00;;;;;;;4.57;4.22;;;23.10;99.90;;;;;;5027157;28;20222;-59
2022/08/05 03:35:27;;;;;;;4.23;3.90;;;23.10;99.90;;;;;;5021092;28;20211;-59
2022/08/05 03:37:56;;;;;;;5.27;4.87;;;23.10;99.90;;;;;;5020379;28;20197;-60
2022/08/05 03:40:22;;;;;;;4.57;3.60;;;23.10;99.90;;;;;;5024052;28;20208;-59
2022/08/05 03:42:48;;;;;;;4.73;4.33;;;23.10;99.90;;;;;;5042268;28;20192;-60
2022/08/05 03:45:13;;;;;;;4.57;4.15;;;23.20;99.90;;;;;;5025020;28;20737;-60
2022/08/05 03:47:39;;;;;;;5.33;4.37;;;23.20;99.90;;;;;;5027032;28;20199;-60
2022/08/05 03:50:05;;;;;;;5.30;4.35;;;23.20;99.90;;;;;;5027825;28;20200;-60
2022/08/05 03:52:41;;;;;;;4.43;4.13;;;23.20;99.90;;;;;;5004775;28;20817;-60
2022/08/05 03:55:10;;;;;;;4.93;4.20;;;23.30;99.90;;;;;;5011589;28;20570;-60
2022/08/05 03:57:38;;;;;;;4.80;3.63;;;23.30;99.90;;;;;;5016202;28;20195;-59
2022/08/05 04:00:13;;;;;;;5.03;4.10;;;23.30;99.90;;;;;;5028503;28;20228;-59
2022/08/05 04:02:40;;;;;;;6.60;5.05;;;23.30;99.90;;;;;;5027660;28;20191;-59
2022/08/05 04:05:08;;;;;;;4.90;4.40;;;23.30;99.90;;;;;;5028524;28;21020;-59
2022/08/05 04:07:34;;;;;;;4.88;4.47;;;23.30;99.90;;;;;;5016109;28;20204;-59
2022/08/05 04:10:00;;;;;;;4.35;3.90;;;23.30;99.90;;;;;;5020820;28;20649;-59
2022/08/05 04:12:27;;;;;;;5.85;4.28;;;23.40;99.90;;;;;;5015284;28;20228;-59
2022/08/05 04:14:53;;;;;;;7.47;4.15;;;23.40;99.90;;;;;;5023488;28;20203;-59
2022/08/05 04:17:18;;;;;;;6.68;4.15;;;23.50;99.90;;;;;;5012176;28;20187;-59
2022/08/05 04:19:46;;;;;;;5.03;4.57;;;23.50;99.90;;;;;;5038530;28;20218;-61
2022/08/05 04:22:13;;;;;;;5.03;4.05;;;23.50;99.90;;;;;;5017124;28;20203;-61
2022/08/05 04:24:43;;;;;;;4.30;3.95;;;23.60;99.90;;;;;;5031476;28;20219;-60
2022/08/05 04:27:09;;;;;;;4.30;3.90;;;23.60;99.90;;;;;;5016962;28;20195;-61
2022/08/05 04:29:35;;;;;;;5.45;3.85;;;23.70;99.90;;;;;;5027486;28;20789;-60
2022/08/05 04:32:01;;;;;;;5.10;4.47;;;23.70;99.90;;;;;;5017133;28;20317;-60
2022/08/05 04:34:26;;;;;;;4.40;4.03;;;23.80;99.90;;;;;;5042692;28;20219;-61
2022/08/05 04:36:52;;;;;;;3.88;3.35;;;23.90;99.90;;;;;;5022439;28;20242;-61
2022/08/05 04:39:18;;;;;;;5.78;4.60;;;23.90;99.90;;;;;;5040988;28;20636;-60
2022/08/05 04:41:44;;;;;;;4.88;4.38;;;24.10;99.90;;;;;;5017666;28;20652;-61
2022/08/05 04:44:09;;;;;;;5.40;4.10;;;24.20;99.90;;;;;;5035118;28;20200;-61
2022/08/05 04:46:36;;;;;;;7.03;4.18;;;24.30;99.90;;;;;;5016652;28;20205;-61
2022/08/05 04:49:01;;;;;;;8.27;4.80;;;24.40;99.90;;;;;;5036450;28;20217;-61
2022/08/05 04:51:26;;;;;;;4.72;4.28;;;24.50;99.90;;;;;;5014040;28;20222;-60
2022/08/05 04:53:52;;;;;;;5.07;3.92;;;24.60;99.90;;;;;;5042080;28;20203;-59
2022/08/05 04:56:17;;;;;;;5.13;4.47;;;24.70;99.90;;;;;;5014656;28;20267;-60
2022/08/05 04:58:43;;;;;;;4.68;4.28;;;24.70;99.90;;;;;;5028936;28;20315;-61
2022/08/05 05:01:09;;;;;;;4.55;4.18;;;24.70;99.90;;;;;;5026565;28;20237;-60
2022/08/05 05:03:34;;;;;;;4.47;4.07;;;24.80;99.90;;;;;;5033498;28;20346;-60
2022/08/05 05:06:00;;;;;;;4.82;4.18;;;24.80;99.90;;;;;;5020288;28;20263;-60
2022/08/05 05:08:25;;;;;;;4.80;4.20;;;24.90;99.90;;;;;;5025597;28;20262;-60
2022/08/05 05:10:51;;;;;;;6.45;4.15;;;24.90;99.90;;;;;;5022137;28;20204;-59
2022/08/05 05:13:17;;;;;;;5.20;4.55;;;25.00;99.90;;;;;;5023735;28;20558;-60
2022/08/05 05:15:44;;;;;;;5.78;5.35;;;25.10;99.90;;;;;;5031407;28;20216;-60
2022/08/05 05:18:14;;;;;;;5.63;3.92;;;25.20;99.90;;;;;;5042900;28;20558;-61
2022/08/05 05:20:41;;;;;;;4.60;4.25;;;25.20;99.90;;;;;;5026410;28;20237;-58
2022/08/05 05:23:07;;;;;;;4.93;4.45;;;25.20;99.90;;;;;;5042892;28;20197;-60
2022/08/05 05:25:32;;;;;;;4.65;4.13;;;25.20;99.90;;;;;;5027945;28;20253;-62
2022/08/05 05:27:58;;;;;;;4.45;4.15;;;25.20;99.90;;;;;;5022077;28;20191;-60
2022/08/05 05:30:23;;;;;;;3.80;3.50;;;25.30;99.90;;;;;;5028988;28;20706;-61
2022/08/05 05:32:49;;;;;;;4.97;4.57;;;25.30;99.90;;;;;;5010713;28;20189;-60
2022/08/05 05:35:15;;;;;;;4.68;4.28;;;25.30;99.90;;;;;;5033312;28;20204;-59
2022/08/05 05:37:51;;;;;;;4.00;3.80;;;25.30;99.90;;;;;;5020375;28;20281;-60
2022/08/05 05:40:19;;;;;;;4.35;3.75;;;25.30;99.90;;;;;;5035163;28;20701;-60
2022/08/05 05:42:45;;;;;;;4.00;3.63;;;25.30;99.90;;;;;;5015175;28;20225;-60
2022/08/05 05:45:11;;;;;;;4.43;4.03;;;25.30;99.90;;;;;;5032187;28;20572;-60
2022/08/05 05:47:36;;;;;;;4.53;4.22;;;25.30;99.90;;;;;;5019691;28;20284;-59
2022/08/05 05:50:02;;;;;;;4.53;4.13;;;25.30;99.90;;;;;;5032337;28;20216;-59
2022/08/05 05:52:27;;;;;;;6.07;4.68;;;25.30;99.90;;;;;;5014792;28;20231;-60
2022/08/05 05:54:53;;;;;;;5.30;4.45;;;25.30;99.90;;;;;;5038001;28;20578;-60
2022/08/05 05:57:18;;;;;;;7.97;4.57;;;25.30;99.90;;;;;;5017906;28;20455;-60
2022/08/05 05:59:44;;;;;;;5.70;4.43;;;25.30;99.90;;;;;;5041878;28;20577;-60
2022/08/05 06:02:10;;;;;;;4.38;4.00;;;25.30;99.90;;;;;;5013729;28;20210;-60
2022/08/05 06:04:35;;;;;;;8.40;3.70;;;25.40;99.90;;;;;;5037622;28;20562;-61
2022/08/05 06:07:01;;;;;;;4.15;3.78;;;25.50;99.90;;;;;;5013723;28;20194;-60
2022/08/05 06:09:26;;;;;;;4.38;3.92;;;25.40;99.90;;;;;;5033456;28;20284;-60
2022/08/05 06:11:53;;;;;;;4.38;3.97;;;25.30;99.90;;;;;;5013437;28;20323;-59
2022/08/05 06:14:18;;;;;;;3.72;3.47;;;25.30;99.90;;;;;;5036727;28;20227;-59
2022/08/05 06:16:44;;;;;;;4.53;4.10;;;25.20;99.90;;;;;;5014363;28;20303;-60
2022/08/05 06:19:09;;;;;;;6.57;4.05;;;25.20;99.90;;;;;;5037612;28;20194;-60
2022/08/05 06:21:35;;;;;;;5.72;3.53;;;25.20;99.90;;;;;;5015785;28;20961;-59
2022/08/05 06:24:01;;;;;;;3.78;3.22;;;25.10;99.90;;;;;;5034142;28;20781;-60
2022/08/05 06:26:27;;;;;;;4.15;3.75;;;25.10;99.90;;;;;;5014983;28;20201;-60
2022/08/05 06:28:52;;;;;;;5.05;3.40;;;25.10;99.90;;;;;;5021573;28;20208;-59
2022/08/05 06:31:18;;;;;;;4.07;3.55;;;25.20;99.90;;;;;;5018549;28;20234;-59
2022/08/05 06:33:43;;;;;;;6.30;3.95;;;25.30;99.90;;;;;;5040050;28;20200;-60
2022/08/05 06:36:09;;;;;;;5.72;3.75;;;25.40;99.90;;;;;;5021103;28;20212;-60
2022/08/05 06:38:34;;;;;;;6.05;3.78;;;25.50;99.90;;;;;;5028798;28;20192;-61
2022/08/05 06:41:00;;;;;;;4.00;3.70;;;25.60;99.90;;;;;;5013093;28;20268;-60
2022/08/05 06:43:26;;;;;;;4.25;3.38;;;25.60;99.90;;;;;;5030111;28;20244;-59
2022/08/05 06:45:51;;;;;;;5.43;3.85;;;25.80;99.90;;;;;;5027254;28;20195;-60
2022/08/05 06:48:17;;;;;;;4.38;3.65;;;25.90;99.90;;;;;;5026726;28;20191;-60
2022/08/05 06:50:42;;;;;;;5.10;3.40;;;26.00;99.90;;;;;;5027592;28;20222;-61
2022/08/05 06:53:08;;;;;;;3.70;3.50;;;26.10;99.90;;;;;;5018075;28;20252;-64
2022/08/05 06:55:33;;;;;;;3.78;3.47;;;26.30;99.90;;;;;;5032254;28;20268;-64
2022/08/05 06:57:58;;;;;;;6.30;3.65;;;26.50;99.90;;;;;;5009171;28;20764;-64
2022/08/05 07:00:24;;;;;;;2.90;2.70;;;26.60;99.90;;;;;;5037856;28;20237;-65
2022/08/05 07:02:49;;;;;;;3.08;2.88;;;26.80;99.90;;;;;;5032038;28;20656;-63
2022/08/05 07:05:15;;;;;;;3.70;3.38;;;27.20;99.90;;;;;;5036648;28;20692;-63
2022/08/05 07:07:42;;;;;;;4.90;3.17;;;27.40;99.90;;;;;;5024462;28;20269;-63
2022/08/05 07:10:08;;;;;;;5.47;3.35;;;27.20;99.90;;;;;;5037153;28;20198;-64
2022/08/05 07:18:02;;;;;;;6.70;4.05;;;27.00;99.90;;;;;;5020613;28;20191;-63
2022/08/05 07:20:28;;;;;;;3.70;3.40;;;26.70;99.90;;;;;;5021769;28;20216;-63
2022/08/05 07:22:53;;;;;;;5.53;4.00;;;26.60;99.90;;;;;;5014831;28;20685;-63
2022/08/05 07:25:19;;;;;;;3.53;3.22;;;26.40;99.90;;;;;;5030796;28;20289;-63
2022/08/05 07:27:44;;;;;;;4.10;3.70;;;26.20;99.90;;;;;;5024942;28;20277;-63
2022/08/05 07:30:10;;;;;;;6.82;4.00;;;26.00;99.90;;;;;;5038944;28;20640;-63
2022/08/05 07:32:37;;;;;;;5.78;3.28;;;26.00;99.90;;;;;;5016228;28;20182;-63
2022/08/05 07:35:09;;;;;;;3.53;3.22;;;25.90;99.90;;;;;;5035364;28;20583;-65
2022/08/05 07:37:35;;;;;;;4.03;3.67;;;26.00;99.90;;;;;;5013833;28;20195;-63
2022/08/05 07:40:03;;;;;;;4.00;3.50;;;26.00;99.90;;;;;;5024712;28;20247;-65
2022/08/05 07:42:29;;;;;;;5.45;4.25;;;26.00;99.90;;;;;;5018642;28;20191;-63
2022/08/05 07:44:55;;;;;;;3.63;3.33;;;25.90;99.90;;;;;;5035939;28;20557;-62
2022/08/05 07:47:21;;;;;;;4.80;4.03;;;25.70;99.90;;;;;;5014102;28;20236;-63
2022/08/05 07:49:47;;;;;;;4.13;3.83;;;25.50;99.90;;;;;;5032531;28;20261;-63
2022/08/05 07:52:12;;;;;;;4.25;3.70;;;25.30;99.90;;;;;;5013976;28;20210;-63
2022/08/05 07:54:38;;;;;;;5.13;3.88;;;25.20;99.90;;;;;;5027092;28;20200;-63
2022/08/05 07:57:03;;;;;;;4.40;3.80;;;25.00;99.90;;;;;;5013590;28;20204;-63
2022/08/05 07:59:29;;;;;;;5.30;4.22;;;25.00;99.90;;;;;;5030285;28;20901;-64
2022/08/05 08:01:55;;;;;;;5.85;4.07;;;25.00;99.90;;;;;;5011241;28;20229;-64
2022/08/05 08:04:21;;;;;;;5.10;4.00;;;25.00;99.90;;;;;;5034037;28;20489;-63
2022/08/05 08:06:46;;;;;;;5.88;4.35;;;25.00;99.90;;;;;;5018823;28;20280;-64
2022/08/05 08:09:12;;;;;;;4.32;3.67;;;24.90;99.90;;;;;;5034980;28;20198;-64
2022/08/05 08:11:38;;;;;;;6.75;4.22;;;24.80;99.90;;;;;;5020496;28;20287;-72
2022/08/05 08:14:03;;;;;;;4.75;4.07;;;24.80;99.90;;;;;;5038673;28;20191;-73
2022/08/05 08:16:29;;;;;;;4.15;3.78;;;24.90;99.90;;;;;;5021837;28;20571;-72
2022/08/05 08:18:54;;;;;;;4.00;3.70;;;25.00;99.90;;;;;;5043509;28;20189;-64
2022/08/05 08:21:20;;;;;;;4.60;3.60;;;25.20;99.90;;;;;;5022261;28;20469;-64
2022/08/05 08:23:45;;;;;;;4.90;3.65;;;25.30;99.90;;;;;;5041833;28;20205;-63
2022/08/05 08:26:11;;;;;;;5.22;3.50;;;25.40;99.90;;;;;;5028746;28;20288;-63
2022/08/05 08:28:37;;;;;;;5.32;3.22;;;25.40;99.90;;;;;;5036388;28;20682;-64
2022/08/05 08:31:03;;;;;;;3.65;3.35;;;25.50;99.90;;;;;;5030395;28;20217;-68
2022/08/05 08:34:05;;;;;;;3.05;2.85;;;25.70;99.90;;;;;;5010275;28;20752;-71
2022/08/05 08:36:55;;;;;;;3.70;3.22;;;25.90;99.90;;;;;;5001670;28;20203;-71
2022/08/05 08:43:23;;;;;;;3.40;3.10;;;26.30;99.90;;;;;;5003979;28;20237;-71
2022/08/05 08:45:53;;;;;;;3.53;3.22;;;26.20;99.90;;;;;;5004491;28;20275;-65
2022/08/05 08:48:20;;;;;;;4.03;2.90;;;26.10;99.90;;;;;;5016980;28;20238;-63
2022/08/05 08:50:47;;;;;;;3.50;3.13;;;26.00;99.90;;;;;;5020009;28;20219;-63
2022/08/05 08:53:15;;;;;;;4.93;3.05;;;25.90;99.90;;;;;;5012520;28;20193;-63
2022/08/05 08:55:40;;;;;;;8.07;3.90;;;25.80;99.90;;;;;;5026096;28;20214;-65
2022/08/05 08:58:07;;;;;;;8.10;3.05;;;25.70;99.90;;;;;;5015768;28;20651;-63
2022/08/05 09:00:33;;;;;;;6.20;3.38;;;25.60;99.90;;;;;;5032148;28;20280;-63
2022/08/05 09:03:00;;;;;;;3.17;2.95;;;25.50;99.90;;;;;;5010505;28;20582;-63
2022/08/05 09:05:26;;;;;;;3.65;3.35;;;25.40;99.90;;;;;;5033825;28;20255;-63
2022/08/05 09:07:53;;;;;;;4.28;3.50;;;25.40;99.90;;;;;;5013191;28;20660;-65
2022/08/05 09:10:20;;;;;;;4.13;3.38;;;25.40;99.90;;;;;;5036607;28;20279;-63
2022/08/05 09:12:46;;;;;;;4.63;3.28;;;25.50;99.90;;;;;;5016191;28;20192;-64
2022/08/05 09:15:11;;;;;;;5.15;4.07;;;25.60;99.90;;;;;;5034396;28;20584;-65
2022/08/05 09:17:39;;;;;;;3.30;3.05;;;25.70;99.90;;;;;;5006882;28;20203;-63
2022/08/05 09:20:05;;;;;;;3.53;3.13;;;25.80;99.90;;;;;;5030418;28;20207;-64
2022/08/05 09:23:04;;;;;;;3.95;2.80;;;25.90;99.90;;;;;;5010402;28;20200;-64
2022/08/05 09:25:29;;;;;;;4.38;3.05;;;26.00;99.90;;;;;;5037512;28;20251;-66
2022/08/05 09:27:55;;;;;;;3.60;2.90;;;26.10;99.90;;;;;;5016878;28;20710;-63
2022/08/05 09:30:21;;;;;;;5.10;3.38;;;26.20;99.90;;;;;;5032057;28;20250;-63
2022/08/05 09:32:46;;;;;;;3.58;3.20;;;26.20;99.90;;;;;;5014071;28;20201;-65
2022/08/05 09:35:14;;;;;;;3.13;2.90;;;26.10;99.90;;;;;;5021336;28;20199;-64
2022/08/05 09:37:50;;;;;;;3.10;2.80;;;26.00;99.90;;;;;;5010624;28;20200;-64
2022/08/05 09:40:38;;;;;;;3.22;3.03;;;25.80;99.90;;;;;;5037479;28;20197;-64
2022/08/05 09:43:05;;;;;;;4.47;3.50;;;25.80;99.90;;;;;;5006819;28;20186;-64
2022/08/05 09:45:40;;;;;;;4.80;3.17;;;25.80;99.90;;;;;;5034134;28;20197;-64
2022/08/05 09:48:19;;;;;;;3.25;2.97;;;25.70;99.90;;;;;;5018295;28;20181;-63
2022/08/05 09:50:49;;;;;;;3.85;3.55;;;25.60;99.90;;;;;;5024069;28;20852;-65
2022/08/05 09:53:14;;;;;;;3.75;2.88;;;25.40;99.90;;;;;;5026859;28;20230;-64
2022/08/05 09:55:40;;;;;;;4.05;2.60;;;25.30;99.90;;;;;;5040380;28;20699;-65
2022/08/05 09:58:10;;;;;;;4.35;3.40;;;25.30;99.90;;;;;;5012338;28;20615;-63
2022/08/05 10:00:36;;;;;;;4.43;4.05;;;25.10;99.90;;;;;;5032172;28;20247;-63
2022/08/05 10:03:09;;;;;;;3.88;3.10;;;25.10;99.90;;;;;;5006291;28;20174;-64
2022/08/05 10:05:35;;;;;;;6.03;3.35;;;25.00;99.90;;;;;;5026306;28;20214;-64
2022/08/05 10:08:04;;;;;;;4.95;3.10;;;25.00;99.90;;;;;;5030454;28;20613;-64
2022/08/05 10:10:47;;;;;;;3.88;3.38;;;25.00;99.90;;;;;;5031669;28;20226;-64
2022/08/05 10:13:26;;;;;;;4.47;3.15;;;24.80;99.90;;;;;;5032728;28;20179;-64
2022/08/05 10:15:52;;;;;;;4.00;3.70;;;24.90;99.90;;;;;;5009236;28;20755;-64
2022/08/05 10:18:21;;;;;;;3.85;3.55;;;25.10;99.90;;;;;;5011727;28;20219;-69
2022/08/05 10:20:52;;;;;;;4.00;3.70;;;25.20;99.90;;;;;;5036586;28;20208;-64
2022/08/05 10:23:20;;;;;;;4.55;3.50;;;25.30;99.90;;;;;;5036830;28;20176;-64
2022/08/05 10:25:46;;;;;;;3.67;2.97;;;25.40;99.90;;;;;;5033005;28;20267;-64
2022/08/05 10:28:11;;;;;;;7.78;3.60;;;25.50;99.90;;;;;;5036461;28;20267;-64
2022/08/05 10:30:38;;;;;;;4.40;3.40;;;25.60;99.90;;;;;;5034214;28;20645;-65
2022/08/05 10:33:04;;;;;;;3.65;3.35;;;25.50;99.90;;;;;;5031517;28;20189;-66
2022/08/05 10:35:33;;;;;;;4.90;3.10;;;25.40;99.90;;;;;;5037522;28;20673;-63
2022/08/05 10:37:59;;;;;;;4.13;3.47;;;25.40;99.90;;;;;;5032563;28;20195;-64
2022/08/05 10:40:28;;;;;;;3.55;3.25;;;25.40;99.90;;;;;;5030745;28;20609;-65
2022/08/05 10:43:01;;;;;;;6.00;5.43;;;25.60;99.90;;;;;;5017423;28;20249;-64
2022/08/05 10:45:27;;;;;;;4.78;3.58;;;25.90;99.90;;;;;;5018496;28;20197;-64
2022/08/05 10:47:53;;;;;;;4.10;3.65;;;26.30;99.90;;;;;;5015074;28;20205;-64
2022/08/05 10:50:19;;;;;;;5.63;3.33;;;26.50;99.90;;;;;;5044718;28;20207;-64
2022/08/05 10:52:52;;;;;;;3.75;3.45;;;26.70;99.90;;;;;;5015585;28;20912;-69
2022/08/05 10:55:18;;;;;;;3.75;3.20;;;26.70;99.90;;;;;;5021752;28;20232;-65
2022/08/05 10:57:45;;;;;;;3.60;3.38;;;26.80;99.90;;;;;;5029059;28;20198;-64
2022/08/05 11:00:11;;;;;;;3.70;3.40;;;26.90;99.90;;;;;;5037815;28;20306;-64
2022/08/05 11:02:57;;;;;;;3.80;3.25;;;27.00;99.90;;;;;;5029618;28;20213;-64
2022/08/05 11:05:23;;;;;;;4.28;3.50;;;27.00;99.90;;;;;;5033151;28;20187;-62
2022/08/05 11:08:09;;;;;;;3.65;3.35;;;27.00;99.90;;;;;;5028531;28;20356;-63
2022/08/05 11:10:36;;;;;;;2.85;2.65;;;27.00;99.90;;;;;;5032561;28;20199;-63
2022/08/05 11:13:05;;;;;;;3.25;2.95;;;27.20;99.90;;;;;;5025726;28;20227;-64
2022/08/05 11:15:34;;;;;;;2.60;2.38;;;27.50;99.90;;;;;;5033808;28;20912;-65
2022/08/05 11:18:27;;;;;;;2.63;2.40;;;27.80;99.90;;;;;;5027236;28;20214;-65
2022/08/05 11:20:53;;;;;;;2.70;2.50;;;28.30;99.90;;;;;;5029529;28;20237;-64
2022/08/05 11:23:46;;;;;;;4.47;3.20;;;28.80;99.90;;;;;;5028575;28;20516;-64
2022/08/05 11:26:15;;;;;;;3.25;2.95;;;29.20;99.90;;;;;;5025861;28;20250;-65
2022/08/05 11:28:43;;;;;;;2.80;2.60;;;29.60;99.90;;;;;;5032316;28;20183;-63
2022/08/05 11:31:08;;;;;;;2.88;2.30;;;29.50;99.40;;;;;;5030791;28;20305;-63
2022/08/05 11:33:38;;;;;;;4.30;2.58;;;29.50;99.90;;;;;;5031333;28;20270;-72
2022/08/05 11:36:08;;;;;;;3.85;2.45;;;29.70;99.90;;;;;;5027803;28;20290;-69
2022/08/05 11:38:42;;;;;;;4.38;3.70;;;30.10;99.90;;;;;;5031859;28;20270;-66
2022/08/05 11:41:22;;;;;;;5.35;3.55;;;30.60;97.60;;;;;;5027618;28;20210;-66
2022/08/05 11:43:56;;;;;;;3.40;3.10;;;30.80;96.30;;;;;;5005057;28;20183;-68
2022/08/05 11:46:29;;;;;;;3.00;2.80;;;31.30;95.70;;;;;;5017618;28;20230;-67
2022/08/05 11:48:55;;;;;;;2.88;2.67;;;31.80;93.70;;;;;;5013353;28;20218;-67
2022/08/05 11:51:21;;;;;;;3.13;2.83;;;32.10;93.60;;;;;;5024994;28;20218;-67
2022/08/05 11:53:47;;;;;;;2.85;2.67;;;32.30;93.10;;;;;;5025276;28;20513;-69
2022/08/05 11:56:13;;;;;;;5.10;3.40;;;32.70;91.30;;;;;;5037290;28;20246;-68
2022/08/05 11:58:41;;;;;;;3.35;3.00;;;33.10;91.00;;;;;;5016293;28;20219;-68
2022/08/05 12:01:18;;;;;;;4.18;3.33;;;33.20;88.00;;;;;;5022523;28;20706;-69
2022/08/05 12:03:47;;;;;;;2.50;2.28;;;33.60;88.00;;;;;;5031384;28;20592;-68
2022/08/05 12:06:14;;;;;;;2.90;2.70;;;34.20;85.70;;;;;;5025410;28;20196;-68
2022/08/05 12:08:47;;;;;;;2.70;2.50;;;34.40;82.40;;;;;;5035793;28;20638;-68
2022/08/05 12:11:18;;;;;;;2.88;2.67;;;34.50;79.20;;;;;;5014759;28;20967;-69
2022/08/05 12:14:00;;;;;;;3.17;2.97;;;35.00;80.30;;;;;;5015712;28;20672;-68
2022/08/05 12:16:38;;;;;;;3.88;2.60;;;34.50;76.00;;;;;;5030662;28;20210;-68
2022/08/05 12:19:06;;;;;;;2.80;2.53;;;33.90;76.70;;;;;;5011434;28;20194;-69
2022/08/05 12:21:34;;;;;;;6.00;2.97;;;34.10;77.10;;;;;;5034905;28;20256;-68
2022/08/05 12:24:03;;;;;;;2.60;2.40;;;34.80;75.70;;;;;;5026588;28;20179;-68
2022/08/05 12:26:51;;;;;;;3.50;2.65;;;35.70;75.90;;;;;;5029170;28;20282;-68
2022/08/05 12:29:22;;;;;;;2.80;2.60;;;36.50;70.60;;;;;;5008825;28;20195;-68
2022/08/05 12:31:53;;;;;;;3.25;2.25;;;37.10;67.30;;;;;;5021341;28;20423;-68
2022/08/05 12:34:22;;;;;;;2.72;2.47;;;37.50;65.00;;;;;;5026693;28;20278;-69
2022/08/05 12:36:49;;;;;;;2.60;2.50;;;37.60;64.70;;;;;;5023759;28;20689;-68
2022/08/05 12:39:16;;;;;;;2.28;2.17;;;37.70;66.50;;;;;;5014304;28;20264;-68
2022/08/05 12:41:41;;;;;;;2.80;2.65;;;37.90;64.60;;;;;;5022724;28;20578;-67
2022/08/05 12:44:10;;;;;;;3.28;1.95;;;38.10;60.60;;;;;;5019659;28;20184;-67
2022/08/05 12:46:38;;;;;;;2.60;2.40;;;38.00;59.70;;;;;;5027216;28;20199;-68
2022/08/05 12:49:10;;;;;;;3.35;2.80;;;38.20;59.10;;;;;;5027457;28;20662;-68
2022/08/05 12:51:48;;;;;;;2.72;2.50;;;37.80;58.50;;;;;;5036655;28;20204;-68
2022/08/05 12:54:28;;;;;;;2.63;2.53;;;37.00;60.20;;;;;;5023890;28;20214;-68
2022/08/05 12:57:00;;;;;;;3.38;2.50;;;35.90;60.90;;;;;;5015783;28;20210;-68
2022/08/05 12:59:29;;;;;;;2.78;1.98;;;36.00;61.30;;;;;;5015443;28;20604;-67
2022/08/05 13:02:08;;;;;;;3.55;2.45;;;35.60;61.20;;;;;;5023393;28;20274;-68